M I D A S
Marine Information and Data Acquisition System
Tripno 2157 of the Zeeleeuw from 2011-08-03 05:13:21 to 2011-08-03 14:39:46
Back to CruiseResearch ActivitiesStationsMapUnderway DataData graphs

EquipmentUnitsComment
TimeDGPSUTC
LatitudeDGPSDM.mWGS84
LongitudeDGPSDM.mWGS84
TemperatureSBE03/SBE38deg celciusITS90
ConductivitySBE21S/mITS90
SalinitySBE21 Practical Salinity Units
ChlorophylAChelsea fluorimeterg/lCalibrated in Aceton
Missing or incorrect values are displayed as -999
Sea surface data collected by the RV Zeeleeuw from 2011-08-03 05:09:19 to 2011-08-03 14:46:54
Time Latitude Longitude Temperature Conductivity Salinity ChlorophylA
2011-08-03 05:10:27 51°13.63 2°55.988 22.5108 0.109541 0.557562 -3.020363
2011-08-03 05:11:28 51°13.673 2°55.86 22.5228 0.109232 0.555947 -3.020363
2011-08-03 05:12:27 51°13.734 2°55.736 22.5205 0.109027 0.554877 -3.020363
2011-08-03 05:13:27 51°13.817 2°55.645 22.524 0.108924 0.554341 -3.020363
2011-08-03 05:14:28 51°13.902 2°55.621 22.5234 0.108924 0.554368 -3.020363
2011-08-03 05:15:27 51°13.961 2°55.646 22.54 0.108615 0.552753 -3.020363
2011-08-03 05:16:27 51°13.968 2°55.633 22.4488 0.108513 0.552227 -3.020363
2011-08-03 05:17:25 51°13.998 2°55.565 22.5216 0.108718 0.55335 -3.020363
2011-08-03 05:18:25 51°14.083 2°55.468 22.509 0.108821 0.553903 -3.020363
2011-08-03 05:19:23 51°14.197 2°55.364 22.5209 0.108821 0.553912 -3.020363
2011-08-03 05:20:23 51°14.337 2°55.235 22.5258 0.108821 0.55393 -3.020363
2011-08-03 05:21:23 51°14.49 2°55.085 22.5486 0.108615 0.552841 -3.020363
2011-08-03 05:22:23 51°14.66 2°54.897 22.5366 0.108821 0.553921 -3.020363
2011-08-03 05:23:23 51°14.835 2°54.692 22.5569 0.108615 0.55285 -3.020363
2011-08-03 05:24:23 51°15.011 2°54.498 22.5326 0.108718 0.553421 -3.020363
2011-08-03 05:25:23 51°15.186 2°54.303 22.5617 0.108615 0.552877 -3.020363
2011-08-03 05:26:23 51°15.355 2°54.1 22.5115 0.108615 0.552885 -3.020363
2011-08-03 05:27:23 51°15.523 2°53.896 22.5556 0.10841 0.551815 -3.020363
2011-08-03 05:28:23 51°15.676 2°53.668 22.5456 0.108615 0.552912 -3.020363
2011-08-03 05:29:23 51°15.847 2°53.473 22.5561 0.108821 0.554 -3.020363
2011-08-03 05:30:23 51°16.031 2°53.308 22.5694 0.108615 0.552929 -3.020363
2011-08-03 05:31:23 51°16.214 2°53.136 22.5888 0.108718 0.553474 -3.020363
2011-08-03 05:32:23 51°16.395 2°52.962 22.5586 0.108718 0.553491 -3.020363
2011-08-03 05:33:23 51°16.584 2°52.806 22.5896 0.108821 0.554044 -3.020363
2011-08-03 05:34:24 51°16.786 2°52.672 22.5952 0.108718 0.553509 -3.020363
2011-08-03 05:35:23 51°16.978 2°52.53 22.6071 0.108513 0.55242 -3.020363
2011-08-03 05:36:23 51°17.166 2°52.364 22.5332 0.108718 0.553526 -3.020363
2011-08-03 05:37:23 51°17.372 2°52.272 22.6139 0.108924 0.554633 -3.020363
2011-08-03 05:38:23 51°17.584 2°52.214 22.6253 0.108718 0.553553 -3.020363
2011-08-03 05:39:23 51°17.793 2°52.132 22.6285 0.108821 0.554106 -3.020363
2011-08-03 05:40:23 51°18.001 2°52.041 22.5975 0.108615 0.553035 -3.020363
2011-08-03 05:41:23 51°18.206 2°51.935 22.6175 0.108821 0.554124 -3.020363
2011-08-03 05:42:23 51°18.411 2°51.826 22.6155 0.108821 0.554133 -3.020363
2011-08-03 05:43:23 51°18.62 2°51.728 22.6309 0.108924 0.554686 -3.020363
2011-08-03 05:44:23 51°18.827 2°51.625 22.6327 0.108718 0.553606 -3.020363
2011-08-03 05:45:23 51°19.032 2°51.513 22.6417 0.108924 0.554704 -3.020363
2011-08-03 05:46:23 51°19.237 2°51.397 22.6147 0.108924 0.554712 -3.020363
2011-08-03 05:47:23 51°19.443 2°51.298 22.6498 0.108718 0.55365 -3.020363
2011-08-03 05:48:23 51°19.645 2°51.182 22.651 0.109027 0.555275 -3.020363
2011-08-03 05:49:23 51°19.852 2°51.08 22.6839 0.108821 0.554203 -3.020363
2011-08-03 05:50:23 51°20.051 2°50.947 22.6768 0.108924 0.554757 -3.020363
2011-08-03 05:51:23 51°20.253 2°50.818 22.688 0.108821 0.55423 -3.020363
2011-08-03 05:52:23 51°20.458 2°50.703 22.6926 0.109027 0.555328 -3.020363
2011-08-03 05:53:23 51°20.665 2°50.6 22.7038 0.108718 0.553703 -3.020363
2011-08-03 05:54:23 51°20.873 2°50.488 22.7256 0.109027 0.555345 -3.020363
2011-08-03 05:55:23 51°21.077 2°50.37 22.7254 0.109027 0.555363 -3.020363
2011-08-03 05:56:23 51°21.285 2°50.268 22.7467 0.109232 0.556461 -3.020363
2011-08-03 05:57:23 51°21.495 2°50.182 22.7357 0.108924 0.554836 -3.020363
2011-08-03 05:58:23 51°21.706 2°50.09 22.7512 0.109232 0.556479 -3.020363
2011-08-03 05:59:23 51°21.919 2°50.009 22.7688 0.108924 0.554863 -3.020363
2011-08-03 06:00:23 51°22.129 2°49.912 22.7597 0.10913 0.555952 -3.020363
2011-08-03 06:01:23 51°22.341 2°49.826 22.7805 0.108924 0.55488 -3.020363
2011-08-03 06:02:23 51°22.548 2°49.723 22.7766 0.10913 0.55597 -3.020363
2011-08-03 06:03:23 51°22.76 2°49.644 22.8099 0.10913 0.555987 -3.020363
2011-08-03 06:04:23 51°22.97 2°49.541 22.7988 0.109232 0.55655 -3.020363
2011-08-03 06:05:23 51°23.183 2°49.454 22.8282 0.10913 0.556023 -3.020363
2011-08-03 06:06:23 51°23.392 2°49.343 22.8222 0.109232 0.556568 -3.020363
2011-08-03 06:07:23 51°23.602 2°49.244 22.8342 0.10913 0.556041 -3.020363
2011-08-03 06:08:23 51°23.808 2°49.127 22.83 0.10913 0.556058 -3.020363
2011-08-03 06:09:23 51°24.019 2°49.034 22.8365 0.109027 0.555531 -3.020363
2011-08-03 06:10:23 51°24.226 2°48.928 22.8499 0.109232 0.556621 -3.020363
2011-08-03 06:11:23 51°24.439 2°48.86 22.8622 0.10913 0.556103 -3.020363
2011-08-03 06:12:23 51°24.651 2°48.782 22.8585 0.109335 0.557192 -3.020363
2011-08-03 06:13:23 51°24.867 2°48.729 22.8821 0.109232 0.556665 -3.020363
2011-08-03 06:14:23 51°25.078 2°48.65 22.8727 0.109232 0.556674 -3.020363
2011-08-03 06:15:23 51°25.294 2°48.595 22.9106 0.109335 0.557237 -3.020363
2011-08-03 06:16:23 51°25.509 2°48.523 22.8892 0.109335 0.557255 -3.020363
2011-08-03 06:17:23 51°25.726 2°48.467 22.9265 0.109335 0.557272 -3.020363
2011-08-03 06:18:23 51°25.943 2°48.393 22.9078 0.109438 0.557826 -3.020363
2011-08-03 06:19:23 51°26.163 2°48.33 22.9322 0.109335 0.557308 -3.020363
2011-08-03 06:20:23 51°26.379 2°48.242 22.9304 0.109335 0.557326 -3.020363
2011-08-03 06:21:23 51°26.595 2°48.17 22.9365 0.109438 0.557871 -3.020363
2011-08-03 06:22:23 51°26.808 2°48.081 22.9644 0.109438 0.557889 -3.020363
2011-08-03 06:23:23 51°27.023 2°48.008 22.9856 0.109644 0.559005 -3.020363
2011-08-03 06:24:23 51°27.233 2°47.915 22.9782 0.109438 0.557924 -3.020363
2011-08-03 06:25:23 51°27.445 2°47.825 22.9826 0.109747 0.559577 -3.020363
2011-08-03 06:26:23 51°27.66 2°47.753 22.9958 0.109541 0.558514 -3.020363
2011-08-03 06:27:23 51°27.873 2°47.675 23.0167 0.109747 0.559631 -3.020363
2011-08-03 06:28:23 51°28.087 2°47.595 22.9934 0.109541 0.558549 -3.020363
2011-08-03 06:29:23 51°28.299 2°47.507 23.022 0.109747 0.559649 -3.020363
2011-08-03 06:30:23 51°28.516 2°47.438 23.0203 0.109541 0.558585 -3.020363
2011-08-03 06:31:23 51°28.73 2°47.347 23.0276 0.109747 0.559676 -3.020363
2011-08-03 06:32:23 51°28.947 2°47.279 23.0499 0.109644 0.559166 -3.020363
2011-08-03 06:33:23 51°29.161 2°47.191 23.049 0.109849 0.560275 -3.020363
2011-08-03 06:34:23 51°29.376 2°47.125 23.0766 0.109849 0.560293 -3.020363
2011-08-03 06:35:23 51°29.59 2°47.05 23.0945 0.109849 0.560319 -3.020363
2011-08-03 06:36:23 51°29.801 2°46.958 23.0804 0.109747 0.559783 -3.020363
2011-08-03 06:37:23 51°30.015 2°46.887 23.0981 0.109849 0.560355 -3.020363
2011-08-03 06:38:23 51°30.228 2°46.798 23.0988 0.109952 0.56091 -3.020363
2011-08-03 06:39:23 51°30.443 2°46.723 23.1068 0.109747 0.559845 -3.020363
2011-08-03 06:40:23 51°30.656 2°46.642 23.1169 0.109952 0.560963 -3.020363
2011-08-03 06:41:23 51°30.87 2°46.561 23.1214 0.110055 0.561527 -3.020363
2011-08-03 06:42:23 51°31.084 2°46.489 23.1497 0.109849 0.560454 -3.020363
2011-08-03 06:43:23 51°31.296 2°46.397 23.1504 0.109849 0.56048 -3.020363
2011-08-03 06:44:23 51°31.51 2°46.318 23.1667 0.110158 0.562162 -3.020363
2011-08-03 06:45:23 51°31.724 2°46.241 23.1671 0.109849 0.560525 -3.020363
2011-08-03 06:46:23 51°31.936 2°46.153 23.1588 0.109849 0.560543 -3.020363
2011-08-03 06:47:23 51°32.152 2°46.09 23.1924 0.109849 0.56057 -3.020363
2011-08-03 06:48:23 51°32.365 2°46.007 23.1752 0.109849 0.560588 -3.020363
2011-08-03 06:49:23 51°32.58 2°45.937 23.2032 0.109644 0.559541 -3.020363
2011-08-03 06:50:23 51°32.792 2°45.849 23.2027 0.109849 0.560651 -3.020363
2011-08-03 06:51:23 51°33.008 2°45.781 23.2328 0.109849 0.560677 -3.020363
2011-08-03 06:52:23 51°33.222 2°45.699 23.218 0.109747 0.56015 -3.020363
2011-08-03 06:53:23 51°33.439 2°45.632 23.2485 0.109747 0.560185 -3.020363
2011-08-03 06:54:23 51°33.654 2°45.544 23.2322 0.109747 0.560194 -3.020363
2011-08-03 06:55:23 51°33.874 2°45.482 23.2756 0.109644 0.559693 -3.020363
2011-08-03 06:56:23 51°34.088 2°45.39 23.2649 0.109747 0.560248 -3.020363
2011-08-03 06:57:23 51°34.305 2°45.314 23.2991 0.109541 0.559174 -3.020363
2011-08-03 06:58:23 51°34.521 2°45.231 23.2917 0.109747 0.560275 -3.020363
2011-08-03 06:59:23 51°34.74 2°45.152 23.3142 0.109644 0.559765 -3.020363
2011-08-03 07:00:23 51°34.952 2°45.049 23.3062 0.109747 0.560329 -3.020363
2011-08-03 07:01:23 51°35.167 2°44.973 23.3231 0.109644 0.559827 -3.020363
2011-08-03 07:02:23 51°35.381 2°44.891 23.3308 0.109952 0.561492 -3.020363
2011-08-03 07:03:23 51°35.595 2°44.817 23.3432 0.110055 0.562074 -3.020363
2011-08-03 07:04:23 51°35.806 2°44.722 23.3496 0.110363 0.563722 -3.020363
2011-08-03 07:05:23 51°36.018 2°44.634 23.3361 0.110363 0.563767 -3.020363
2011-08-03 07:06:23 51°36.233 2°44.559 23.3538 0.110466 0.564332 -3.020363
2011-08-03 07:07:23 51°36.449 2°44.496 23.3706 0.110672 0.565442 -3.020363
2011-08-03 07:08:23 51°36.663 2°44.413 23.389 0.110775 0.566034 -3.020363
2011-08-03 07:09:23 51°36.875 2°44.325 23.3867 0.11098 0.567145 -3.020363
2011-08-03 07:10:23 51°37.09 2°44.261 23.4045 0.111083 0.567737 -3.020363
2011-08-03 07:11:23 51°37.304 2°44.181 23.417 0.111186 0.568302 -3.020363
2011-08-03 07:12:23 51°37.518 2°44.101 23.4194 0.111186 0.568339 -3.020363
2011-08-03 07:13:23 51°37.731 2°44.017 23.4189 0.111289 0.568922 -3.020363
2011-08-03 07:14:23 51°37.945 2°43.928 23.4175 0.111289 0.568967 -3.020363
2011-08-03 07:15:23 51°38.164 2°43.86 23.4378 0.111186 0.568457 -3.020363
2011-08-03 07:16:23 51°38.378 2°43.772 23.4595 0.111597 0.570681 -3.020363
2011-08-03 07:17:23 51°38.595 2°43.701 23.4821 0.111392 0.569624 -3.020363
2011-08-03 07:18:23 51°38.808 2°43.613 23.476 0.111803 0.571858 -3.020363
2011-08-03 07:19:23 51°39.025 2°43.546 23.4983 0.111803 0.571922 -3.020363
2011-08-03 07:20:23 51°39.239 2°43.462 23.5205 0.111803 0.571977 -3.020363
2011-08-03 07:21:23 51°39.453 2°43.38 23.503 0.111803 0.572023 -3.020363
2011-08-03 07:22:23 51°39.67 2°43.326 23.5094 0.111906 0.572634 -3.020363
2011-08-03 07:23:23 51°39.887 2°43.287 23.5448 0.112009 0.573228 -3.020363
2011-08-03 07:24:23 51°40.103 2°43.231 23.5219 0.112009 0.573292 -3.020363
2011-08-03 07:25:23 51°40.318 2°43.175 23.5433 0.112214 0.574461 -3.020363
2011-08-03 07:26:23 51°40.535 2°43.143 23.5535 0.111803 0.572353 -3.020363
2011-08-03 07:27:23 51°40.749 2°43.081 23.5565 0.112009 0.573512 -3.020363
2011-08-03 07:28:23 51°40.964 2°43.032 23.5653 0.112112 0.574134 -3.020363
2011-08-03 07:29:23 51°41.178 2°42.986 23.5833 0.112009 0.57366 -3.020363
2011-08-03 07:30:23 51°41.392 2°42.928 23.5836 0.112009 0.573743 -3.020363
2011-08-03 07:31:23 51°41.607 2°42.894 17.4874 4.020317 27.886226 -3.020363
2011-08-03 07:32:23 51°41.82 2°42.835 17.2852 4.517451 34.56348 -3.020363
2011-08-03 07:33:23 51°42.035 2°42.792 17.2377 4.487474 34.499186 -3.020363
2011-08-03 07:34:23 51°42.247 2°42.731 17.2148 4.485815 34.553218 -3.020363
2011-08-03 07:35:23 51°42.462 2°42.688 17.1881 4.474301 34.486028 -3.020363
2011-08-03 07:36:23 51°42.675 2°42.638 17.1675 4.481356 34.572296 -3.020363
2011-08-03 07:37:23 51°42.887 2°42.574 17.1485 4.482497 34.606206 -3.020363
2011-08-03 07:38:23 51°43.099 2°42.516 17.1324 4.479904 34.603038 -3.020363
2011-08-03 07:39:23 51°43.311 2°42.454 17.1293 4.461544 34.457286 -3.020363
2011-08-03 07:40:23 51°43.522 2°42.391 17.1201 4.447748 34.347581 -3.020363
2011-08-03 07:41:23 51°43.733 2°42.332 17.1179 4.447229 34.351982 -3.020363
2011-08-03 07:42:23 51°43.944 2°42.275 17.1038 4.4464 34.351644 -3.020363
2011-08-03 07:43:23 51°44.154 2°42.211 17.099 4.476378 34.617968 -3.020363
2011-08-03 07:44:23 51°44.365 2°42.159 17.087 4.473577 34.603361 -3.020363
2011-08-03 07:45:23 51°44.574 2°42.085 17.0868 4.473162 34.605971 -3.020363
2011-08-03 07:46:23 51°44.75 2°42.038 17.0782 4.472436 34.602438 -3.020363
2011-08-03 07:47:23 51°44.854 2°42.004 17.0761 4.471607 34.602834 -3.020363
2011-08-03 07:48:23 51°44.933 2°41.981 17.0769 4.435094 34.290059 -3.020363
2011-08-03 07:49:23 51°44.996 2°41.967 17.0684 4.435302 34.295272 -3.020363
2011-08-03 07:50:23 51°45.041 2°41.957 17.0671 4.472437 34.621758 -3.020363
2011-08-03 07:51:23 51°45.053 2°41.946 17.0651 4.473578 34.632341 -3.020363
2011-08-03 07:52:23 51°45.06 2°41.933 17.0633 4.473578 34.632341 -3.020363
2011-08-03 07:53:23 51°45.082 2°41.922 17.0629 4.473059 34.632679 -3.020363
2011-08-03 07:54:23 51°45.127 2°41.899 17.0643 4.473267 34.632405 -3.020363
2011-08-03 07:55:23 51°45.169 2°41.855 17.0588 4.472956 34.633161 -3.020363
2011-08-03 07:56:23 51°45.202 2°41.798 17.0615 4.472748 34.632053 -3.020363
2011-08-03 07:57:23 51°45.233 2°41.732 17.0618 4.472852 34.63088 -3.020363
2011-08-03 07:58:23 51°45.258 2°41.658 17.0638 4.472955 34.631779 -3.020363
2011-08-03 07:59:23 51°45.273 2°41.586 17.0588 4.472437 34.628663 -3.020363
2011-08-03 08:00:23 51°45.283 2°41.51 17.0562 4.472437 34.629354 -3.020363
2011-08-03 08:01:23 51°45.287 2°41.431 17.0493 4.471503 34.614355 -3.020363
2011-08-03 08:02:23 51°45.286 2°41.351 17.051 4.471088 34.614209 -3.020363
2011-08-03 08:03:23 51°45.279 2°41.272 17.0528 4.471088 34.614899 -3.020363
2011-08-03 08:04:23 51°45.266 2°41.199 17.0536 4.471814 34.621195 -3.020363
2011-08-03 08:05:23 51°45.247 2°41.127 17.0546 4.472022 34.620922 -3.020363
2011-08-03 08:06:23 51°45.223 2°41.063 17.0562 4.472126 34.623893 -3.020363
2011-08-03 08:07:23 51°45.192 2°41 17.0559 4.472229 34.623412 -3.020363
2011-08-03 08:08:23 51°45.154 2°40.937 17.0484 4.471607 34.618015 -3.020363
2011-08-03 08:09:23 51°45.111 2°40.879 17.047 4.471711 34.622367 -3.020363
2011-08-03 08:10:23 51°45.066 2°40.828 17.0404 4.471503 34.624022 -3.020363
2011-08-03 08:11:23 51°45.019 2°40.787 17.0337 4.470362 34.620343 -3.020363
2011-08-03 08:12:23 51°44.971 2°40.758 17.0404 4.470777 34.626014 -3.020363
2011-08-03 08:13:23 51°44.922 2°40.737 17.0375 4.471192 34.624777 -3.020363
2011-08-03 08:14:23 51°44.872 2°40.724 17.0396 4.471088 34.625949 -3.020363
2011-08-03 08:15:23 51°44.823 2°40.721 17.0441 4.471088 34.625949 -3.020363
2011-08-03 08:16:23 51°44.775 2°40.739 17.0429 4.471711 34.626511 -3.020363
2011-08-03 08:17:23 51°44.776 2°40.866 17.0417 4.4714 34.627267 -3.020363
2011-08-03 08:18:23 51°44.843 2°41.094 17.0439 4.471711 34.625821 -3.020363
2011-08-03 08:19:23 51°44.907 2°41.358 17.0438 4.471815 34.628793 -3.020363
2011-08-03 08:20:23 51°44.943 2°41.64 17.0499 4.472333 34.628455 -3.020363
2011-08-03 08:21:23 51°44.992 2°41.857 17.0565 4.472541 34.6268 -3.020363
2011-08-03 08:22:23 51°45.028 2°41.96 17.0512 4.473059 34.629225 -3.020363
2011-08-03 08:23:23 51°45.028 2°42.01 17.059 4.472748 34.627908 -3.020363
2011-08-03 08:24:23 51°45.018 2°42.012 17.0549 4.473474 34.630751 -3.020363
2011-08-03 08:25:23 51°45.006 2°42.006 17.0659 4.473578 34.629578 -3.020363
2011-08-03 08:26:23 51°44.994 2°41.996 17.0612 4.4742 34.630141 -3.020363
2011-08-03 08:27:23 51°44.982 2°41.984 17.0575 4.473993 34.630413 -3.020363
2011-08-03 08:28:23 51°44.97 2°41.97 17.0516 4.47337 34.631233 -3.020363
2011-08-03 08:29:23 51°44.958 2°41.955 17.0461 4.472852 34.632261 -3.020363
2011-08-03 08:30:23 51°44.946 2°41.94 17.0465 4.4714 34.62105 -3.020363
2011-08-03 08:31:23 51°44.934 2°41.924 17.044 4.472644 34.632535 -3.020363
2011-08-03 08:32:23 51°44.921 2°41.905 17.0387 4.472333 34.631909 -3.020363
2011-08-03 08:33:23 51°44.91 2°41.887 17.0408 4.472022 34.631974 -3.020363
2011-08-03 08:34:23 51°44.898 2°41.87 17.0413 4.472022 34.630592 -3.020363
2011-08-03 08:35:23 51°44.886 2°41.853 17.0447 4.470881 34.618624 -3.020363
2011-08-03 08:36:23 51°44.874 2°41.837 17.0478 4.471711 34.624439 -3.020363
2011-08-03 08:37:23 51°44.863 2°41.82 17.0471 4.472852 34.632952 -3.020363
2011-08-03 08:38:23 51°44.851 2°41.804 17.0485 4.472852 34.632261 -3.020363
2011-08-03 08:39:23 51°44.839 2°41.788 17.0471 4.472852 34.632261 -3.020363
2011-08-03 08:40:23 51°44.826 2°41.771 17.0489 4.472541 34.630254 -3.020363
2011-08-03 08:41:23 51°44.813 2°41.754 17.0506 4.472955 34.631779 -3.020363
2011-08-03 08:42:23 51°44.799 2°41.738 17.0518 4.472541 34.62611 -3.020363
2011-08-03 08:43:23 51°44.783 2°41.721 17.0542 4.472852 34.628808 -3.020363
2011-08-03 08:44:23 51°44.768 2°41.705 17.0529 4.473059 34.629225 -3.020363
2011-08-03 08:45:23 51°44.752 2°41.692 17.0533 4.473163 34.631506 -3.020363
2011-08-03 08:46:23 51°44.735 2°41.678 17.0539 4.473267 34.631715 -3.020363
2011-08-03 08:47:23 51°44.711 2°41.652 17.0663 4.472022 34.620232 -3.020363
2011-08-03 08:48:23 51°44.655 2°41.637 17.062 4.474096 34.629241 -3.020363
2011-08-03 08:49:23 51°44.552 2°41.687 17.064 4.474615 34.629595 -3.020363
2011-08-03 08:50:23 51°44.391 2°41.761 17.0652 4.474096 34.629241 -3.020363
2011-08-03 08:51:23 51°44.191 2°41.857 17.0733 4.474926 34.632982 -3.020363
2011-08-03 08:52:23 51°43.981 2°41.983 17.0732 4.475134 34.627878 -3.020363
2011-08-03 08:53:23 51°43.764 2°42.087 17.0836 4.476275 34.636386 -3.020363
2011-08-03 08:54:23 51°43.551 2°42.205 17.0952 4.47783 34.640895 -3.020363
2011-08-03 08:55:23 51°43.334 2°42.31 17.106 4.479905 34.647827 -3.020363
2011-08-03 08:56:23 51°43.121 2°42.426 17.106 4.480838 34.651083 -3.020363
2011-08-03 08:57:23 51°42.905 2°42.531 17.111 4.480631 34.647216 -3.020363
2011-08-03 08:58:23 51°42.691 2°42.642 17.1131 4.479905 34.638859 -3.020363
2011-08-03 08:59:23 51°42.476 2°42.751 17.1371 4.479386 34.630231 -3.020363
2011-08-03 09:00:23 51°42.267 2°42.881 17.1514 4.481045 34.622548 -3.020363
2011-08-03 09:01:23 51°42.053 2°42.996 17.17 4.481564 34.618084 -3.020363
2011-08-03 09:02:23 51°41.843 2°43.124 17.191 4.483535 34.615863 -3.020363
2011-08-03 09:03:23 51°41.633 2°43.251 17.2104 4.485194 34.614395 -3.020363
2011-08-03 09:04:23 51°41.426 2°43.386 17.2286 4.486439 34.607971 -3.020363
2011-08-03 09:05:23 51°41.211 2°43.499 17.2519 4.487164 34.599822 -3.020363
2011-08-03 09:06:23 51°40.997 2°43.621 17.2713 4.108363 31.333191 -3.020363
2011-08-03 09:07:23 51°40.783 2°43.742 17.2904 4.499197 34.665253 -3.020363
2011-08-03 09:08:23 51°40.573 2°43.874 17.2993 4.499923 34.661905 -3.020363
2011-08-03 09:09:23 51°40.367 2°44.023 17.3171 4.500442 34.657456 -3.020363
2011-08-03 09:10:23 51°40.156 2°44.154 17.3278 4.501272 34.647463 -3.020363
2011-08-03 09:11:23 51°39.946 2°44.292 17.3581 4.501479 34.64034 -3.020363
2011-08-03 09:12:23 51°39.733 2°44.418 17.3723 4.502101 34.621732 -3.020363
2011-08-03 09:13:23 51°39.526 2°44.562 17.3918 4.502516 34.608887 -3.020363
2011-08-03 09:14:23 51°39.315 2°44.698 17.4131 4.502619 34.596794 -3.020363
2011-08-03 09:15:23 51°39.103 2°44.832 17.4256 4.503656 34.588646 -3.020363
2011-08-03 09:16:23 51°38.895 2°44.98 17.456 4.504901 34.584339 -3.020363
2011-08-03 09:17:23 51°38.679 2°45.107 17.4501 4.506872 34.585597 -3.020363
2011-08-03 09:18:23 51°38.469 2°45.252 17.4554 4.50739 34.586646 -3.020363
2011-08-03 09:19:23 51°38.255 2°45.39 17.4698 4.509154 34.596349 -3.020363
2011-08-03 09:20:23 51°38.038 2°45.518 17.454 4.51071 34.602902 -3.020363
2011-08-03 09:21:23 51°37.824 2°45.649 17.4336 4.510087 34.608466 -3.020363
2011-08-03 09:22:23 51°37.614 2°45.789 17.4184 4.508635 34.619187 -3.020363
2011-08-03 09:23:23 51°37.42 2°45.963 17.4361 4.508739 34.630328 -3.020363
2011-08-03 09:24:23 51°37.224 2°46.13 17.4509 4.511229 34.633295 -3.020363
2011-08-03 09:25:23 51°37.029 2°46.297 17.4675 4.512681 34.629394 -3.020363
2011-08-03 09:26:23 51°36.834 2°46.462 17.478 4.513926 34.627126 -3.020363
2011-08-03 09:27:23 51°36.638 2°46.62 17.4971 4.514444 34.623397 -3.020363
2011-08-03 09:28:23 51°36.446 2°46.781 17.4976 4.51517 34.616681 -3.020363
2011-08-03 09:29:23 51°36.245 2°46.925 17.5301 4.515378 34.615737 -3.020363
2011-08-03 09:30:23 51°36.049 2°47.097 17.5519 4.517556 34.611279 -3.020363
2011-08-03 09:31:23 51°35.843 2°47.251 17.5555 4.519319 34.605994 -3.020363
2011-08-03 09:32:23 51°35.649 2°47.42 17.56 4.513613 34.559774 -3.020363
2011-08-03 09:33:23 51°35.461 2°47.575 17.5935 4.512368 34.521274 -3.020363
2011-08-03 09:34:23 51°35.267 2°47.712 17.5963 4.511123 34.501798 -3.020363
2011-08-03 09:35:23 51°35.09 2°47.872 17.6008 4.509256 34.487157 -3.020363
2011-08-03 09:36:23 51°34.937 2°48.074 17.5852 4.508011 34.47717 -3.020363
2011-08-03 09:37:23 51°34.777 2°48.266 17.6595 4.505832 34.463247 -3.020363
2011-08-03 09:38:23 51°34.618 2°48.452 17.7751 4.502926 34.34397 -3.020363
2011-08-03 09:39:23 51°34.467 2°48.649 17.7853 4.50417 34.291524 -3.020363
2011-08-03 09:40:23 51°34.306 2°48.828 17.8062 4.502095 34.263129 -3.020363
2011-08-03 09:41:23 51°34.151 2°49.016 17.8564 4.500123 34.22562 -3.020363
2011-08-03 09:42:23 51°33.999 2°49.203 17.8795 4.500745 34.183582 -3.020363
2011-08-03 09:43:23 51°33.837 2°49.371 17.8754 4.497425 34.152026 -3.020363
2011-08-03 09:44:23 51°33.683 2°49.552 17.9196 4.494728 34.127765 -3.020363
2011-08-03 09:45:23 51°33.531 2°49.736 17.9095 4.495039 34.095229 -3.020363
2011-08-03 09:46:23 51°33.37 2°49.906 17.9158 4.490578 34.060661 -3.020363
2011-08-03 09:47:23 51°33.216 2°50.087 17.9365 4.488296 34.037971 -3.020363
2011-08-03 09:48:23 51°33.061 2°50.268 17.9417 4.488192 34.011298 -3.020363
2011-08-03 09:49:23 51°32.898 2°50.437 17.9315 4.486636 34.002061 -3.020363
2011-08-03 09:50:23 51°32.739 2°50.617 17.9305 4.486428 34.000961 -3.020363
2011-08-03 09:51:23 51°32.582 2°50.8 17.9285 4.487051 34.010207 -3.020363
2011-08-03 09:52:23 51°32.42 2°50.978 17.932 4.487569 34.023205 -3.020363
2011-08-03 09:53:23 51°32.276 2°51.182 17.9061 4.487777 34.025627 -3.020363
2011-08-03 09:54:23 51°32.125 2°51.38 17.883 4.487985 34.04526 -3.020363
2011-08-03 09:55:23 51°31.99 2°51.559 17.8596 4.487051 34.054556 -3.020363
2011-08-03 09:56:23 51°31.899 2°51.717 17.8317 4.485703 34.066972 -3.020363
2011-08-03 09:57:23 51°31.813 2°51.857 17.8185 4.483525 34.066369 -3.020363
2011-08-03 09:58:23 51°31.746 2°51.947 17.8148 4.481762 34.059336 -3.020363
2011-08-03 09:59:23 51°31.689 2°52.011 17.8097 4.480621 34.053612 -3.020363
2011-08-03 10:00:23 51°31.631 2°52.069 17.8071 4.479791 34.049871 -3.020363
2011-08-03 10:01:23 51°31.537 2°52.16 17.8081 4.479895 34.054075 -3.020363
2011-08-03 10:02:23 51°31.442 2°52.248 17.8116 4.480413 34.058489 -3.020363
2011-08-03 10:03:23 51°31.399 2°52.269 17.8052 4.481139 34.062011 -3.020363
2011-08-03 10:04:23 51°31.372 2°52.247 17.8056 4.481243 34.067545 -3.020363
2011-08-03 10:05:23 51°31.345 2°52.223 17.8086 4.481036 34.06445 -3.020363
2011-08-03 10:06:23 51°31.318 2°52.2 17.8055 4.481036 34.063121 -3.020363
2011-08-03 10:07:23 51°31.288 2°52.176 17.8056 4.480932 34.064232 -3.020363
2011-08-03 10:08:23 51°31.26 2°52.153 17.7999 4.480828 34.064014 -3.020363
2011-08-03 10:09:23 51°31.231 2°52.13 17.8022 4.48114 34.069321 -3.020363
2011-08-03 10:10:23 51°31.201 2°52.108 17.8033 4.48114 34.067991 -3.020363
2011-08-03 10:11:23 51°31.172 2°52.087 17.8044 4.481036 34.066444 -3.020363
2011-08-03 10:12:23 51°31.143 2°52.066 17.8036 4.48114 34.067327 -3.020363
2011-08-03 10:13:23 51°31.113 2°52.043 17.805 4.48114 34.067327 -3.020363
2011-08-03 10:14:23 51°31.08 2°52.023 17.8055 4.481451 34.066653 -3.020363
2011-08-03 10:15:23 51°31.039 2°52.024 17.8218 4.481347 34.065105 -3.020363
2011-08-03 10:16:23 51°30.999 2°52.054 17.8875 4.481554 34.054915 -3.020363
2011-08-03 10:17:23 51°30.968 2°52.098 17.8996 4.475537 33.944847 -3.020363
2011-08-03 10:18:23 51°30.949 2°52.141 18.096 4.469623 33.853823 -3.020363
2011-08-03 10:19:23 51°30.94 2°52.181 18.128 4.465368 33.721501 -3.020363
2011-08-03 10:20:23 51°30.943 2°52.214 18.1272 4.455617 33.581259 -3.020363
2011-08-03 10:21:23 51°30.955 2°52.233 18.1031 4.454476 33.589157 -3.020363
2011-08-03 10:22:23 51°30.97 2°52.231 18.058 4.460285 33.661604 -3.020363
2011-08-03 10:23:23 51°30.986 2°52.214 17.9893 4.461219 33.677308 -3.020363
2011-08-03 10:24:23 51°31.008 2°52.192 17.8633 4.471801 33.842708 -3.020363
2011-08-03 10:25:23 51°31.032 2°52.158 17.8319 4.479064 33.999932 -3.020363
2011-08-03 10:26:23 51°31.067 2°52.111 17.8281 4.478753 34.02114 -3.020363
2011-08-03 10:27:23 51°31.168 2°52.173 17.8272 4.478442 34.019157 -3.020363
2011-08-03 10:28:23 51°31.324 2°52.163 17.8347 4.477093 34.009015 -3.020363
2011-08-03 10:29:23 51°31.483 2°52.205 17.851 4.475641 33.991365 -3.020363
2011-08-03 10:30:23 51°31.504 2°52.315 17.861 4.474604 33.966661 -3.020363
2011-08-03 10:31:23 51°31.462 2°52.368 17.8625 4.474292 33.960048 -3.020363
2011-08-03 10:32:23 51°31.424 2°52.405 17.8511 4.473774 33.958287 -3.020363
2011-08-03 10:33:23 51°31.403 2°52.444 17.8478 4.473151 33.954982 -3.020363
2011-08-03 10:34:23 51°31.394 2°52.478 17.8514 4.473048 33.958069 -3.020363
2011-08-03 10:35:23 51°31.399 2°52.502 17.8631 4.473359 33.955422 -3.020363
2011-08-03 10:36:23 51°31.408 2°52.507 17.8654 4.473151 33.945727 -3.020363
2011-08-03 10:37:23 51°31.388 2°52.48 17.8626 4.472736 33.940219 -3.020363
2011-08-03 10:38:27 51°31.362 2°52.443 17.8505 4.472529 33.944405 -3.020363
2011-08-03 10:39:24 51°31.341 2°52.416 17.8455 4.471803 33.946168 -3.020363
2011-08-03 10:40:23 51°31.32 2°52.388 17.8421 4.471595 33.950357 -3.020363
2011-08-03 10:41:23 51°31.297 2°52.362 17.8482 4.471388 33.948594 -3.020363
2011-08-03 10:42:23 51°31.273 2°52.335 17.8463 4.471388 33.947271 -3.020363
2011-08-03 10:43:23 51°31.25 2°52.309 17.8454 4.471388 33.947933 -3.020363
2011-08-03 10:44:23 51°31.228 2°52.285 17.8475 4.47118 33.946169 -3.020363
2011-08-03 10:45:23 51°31.205 2°52.261 17.8456 4.47118 33.944186 -3.020363
2011-08-03 10:46:23 51°31.182 2°52.238 17.8453 4.470869 33.943525 -3.020363
2011-08-03 10:47:23 51°31.16 2°52.215 17.8446 4.470558 33.940219 -3.020363
2011-08-03 10:48:23 51°31.139 2°52.193 17.8452 4.470558 33.940219 -3.020363
2011-08-03 10:49:23 51°31.119 2°52.172 17.8456 4.470558 33.940219 -3.020363
2011-08-03 10:50:23 51°31.097 2°52.151 17.8472 4.470454 33.938676 -3.020363
2011-08-03 10:51:23 51°31.076 2°52.132 17.8521 4.470454 33.938676 -3.020363
2011-08-03 10:52:23 51°31.055 2°52.112 17.862 4.470558 33.932947 -3.020363
2011-08-03 10:53:23 51°31.047 2°52.111 17.8698 4.470765 33.929424 -3.020363
2011-08-03 10:54:23 51°31.053 2°52.171 17.8699 4.470869 33.923699 -3.020363
2011-08-03 10:55:23 51°30.996 2°52.313 17.8645 4.470454 33.919515 -3.020363
2011-08-03 10:56:23 51°30.934 2°52.563 17.8564 4.470454 33.925459 -3.020363
2011-08-03 10:57:23 51°30.847 2°52.845 17.8534 4.471906 33.943744 -3.020363
2011-08-03 10:58:23 51°30.752 2°53.126 17.8873 4.472114 33.943524 -3.020363
2011-08-03 10:59:23 51°30.673 2°53.414 17.8703 4.467446 33.880117 -3.020363
2011-08-03 11:00:23 51°30.582 2°53.697 17.8482 4.463712 33.865553 -3.020363
2011-08-03 11:01:23 51°30.505 2°53.985 17.8598 4.460081 33.847246 -3.020363
2011-08-03 11:02:23 51°30.424 2°54.27 17.8725 4.454065 33.786938 -3.020363
2011-08-03 11:03:23 51°30.34 2°54.553 17.8723 4.443381 33.68773 -3.020363
2011-08-03 11:04:23 51°30.25 2°54.828 17.9052 4.43695 33.635141 -3.020363
2011-08-03 11:05:23 51°30.172 2°55.101 17.882 4.435912 33.6028 -3.020363
2011-08-03 11:06:23 51°30.083 2°55.368 17.9872 4.426058 33.535601 -3.020363
2011-08-03 11:07:23 51°30.009 2°55.637 18.1013 4.39214 33.126533 -3.020363
2011-08-03 11:08:23 51°29.924 2°55.898 18.0533 4.373056 32.928659 -3.020363
2011-08-03 11:09:23 51°29.843 2°56.161 18.149 4.367249 32.895041 -3.020363
2011-08-03 11:10:23 51°29.766 2°56.427 18.1976 4.367144 32.847141 -3.020363
2011-08-03 11:11:23 51°29.678 2°56.687 18.1295 4.366521 32.770395 -3.020363
2011-08-03 11:12:23 51°29.591 2°56.946 18.0131 4.356877 32.773491 -3.020363
2011-08-03 11:13:23 51°29.513 2°57.212 18.0016 4.360093 32.862774 -3.020363
2011-08-03 11:14:23 51°29.426 2°57.479 17.991 4.36839 32.947368 -3.020363
2011-08-03 11:15:23 51°29.341 2°57.749 18.0204 4.367768 32.944036 -3.020363
2011-08-03 11:16:23 51°29.253 2°58.019 18.0397 4.366523 32.919506 -3.020363
2011-08-03 11:17:23 51°29.171 2°58.291 18.0727 4.362686 32.867432 -3.020363
2011-08-03 11:18:23 51°29.086 2°58.56 18.1268 4.358537 32.805195 -3.020363
2011-08-03 11:19:23 51°28.996 2°58.825 18.2063 4.357499 32.73508 -3.020363
2011-08-03 11:20:23 51°28.912 2°59.093 18.0978 4.354491 32.679567 -3.020363
2011-08-03 11:21:23 51°28.82 2°59.357 18.0645 4.351484 32.735744 -3.020363
2011-08-03 11:22:23 51°28.742 2°59.63 18.044 4.35024 32.74807 -3.020363
2011-08-03 11:23:23 51°28.649 2°59.895 18.0526 4.346196 32.721638 -3.020363
2011-08-03 11:24:23 51°28.564 3°0.165 18.1329 4.343085 32.677756 -3.020363
2011-08-03 11:25:23 51°28.481 3°0.443 18.0605 4.343084 32.65818 -3.020363
2011-08-03 11:26:23 51°28.392 3°0.718 18.0815 4.338211 32.642455 -3.020363
2011-08-03 11:27:23 51°28.312 3°0.998 18.102 4.337484 32.628778 -3.020363
2011-08-03 11:28:23 51°28.227 3°1.275 18.1283 4.33821 32.611551 -3.020363
2011-08-03 11:29:23 51°28.135 3°1.545 18.2278 4.33655 32.549202 -3.020363
2011-08-03 11:30:23 51°28.056 3°1.822 18.1529 4.336964 32.520074 -3.020363
2011-08-03 11:31:23 51°27.978 3°2.099 18.1669 4.332091 32.524975 -3.020363
2011-08-03 11:32:23 51°27.955 3°2.391 18.1669 4.333646 32.519205 -3.020363
2011-08-03 11:33:23 51°27.929 3°2.685 18.1512 4.335617 32.550789 -3.020363
2011-08-03 11:34:23 51°27.9 3°2.979 18.0793 4.337276 32.576023 -3.020363
2011-08-03 11:35:23 51°27.866 3°3.274 18.0459 4.335929 32.616332 -3.020363
2011-08-03 11:36:23 51°27.847 3°3.571 18.0426 4.333337 32.618507 -3.020363
2011-08-03 11:37:23 51°27.833 3°3.87 18.0384 4.332818 32.619196 -3.020363
2011-08-03 11:38:23 51°27.812 3°4.169 18.0328 4.3323 32.614202 -3.020363
2011-08-03 11:39:23 51°27.777 3°4.47 18.0294 4.330641 32.606556 -3.020363
2011-08-03 11:40:23 51°27.744 3°4.772 18.0273 4.329085 32.593468 -3.020363
2011-08-03 11:41:23 51°27.722 3°5.075 18.0209 4.328359 32.590516 -3.020363
2011-08-03 11:42:23 51°27.675 3°5.377 18.0188 4.327945 32.592074 -3.020363
2011-08-03 11:43:23 51°27.614 3°5.675 18.0253 4.328048 32.59484 -3.020363
2011-08-03 11:44:23 51°27.556 3°5.976 18.0276 4.327426 32.582663 -3.020363
2011-08-03 11:45:23 51°27.505 3°6.278 18.0365 4.32587 32.567684 -3.020363
2011-08-03 11:46:23 51°27.496 3°6.584 18.0425 4.324418 32.55043 -3.020363
2011-08-03 11:47:23 51°27.479 3°6.891 18.0423 4.323174 32.536185 -3.020363
2011-08-03 11:48:23 51°27.467 3°7.199 18.0456 4.321722 32.522088 -3.020363
2011-08-03 11:49:23 51°27.456 3°7.507 18.044 4.321618 32.519328 -3.020363
2011-08-03 11:50:23 51°27.444 3°7.815 18.0544 4.320893 32.513854 -3.020363
2011-08-03 11:51:23 51°27.424 3°8.125 18.0651 4.32027 32.499818 -3.020363
2011-08-03 11:52:23 51°27.406 3°8.437 18.0693 4.319233 32.485446 -3.020363
2011-08-03 11:53:23 51°27.391 3°8.749 18.0744 4.317781 32.469479 -3.020363
2011-08-03 11:54:23 51°27.393 3°9.059 18.0924 4.315914 32.447522 -3.020363
2011-08-03 11:55:23 51°27.378 3°9.373 18.1068 4.31467 32.423906 -3.020363
2011-08-03 11:56:23 51°27.376 3°9.686 18.1246 4.313529 32.401807 -3.020363
2011-08-03 11:57:23 51°27.373 3°10.001 18.133 4.31301 32.383696 -3.020363
2011-08-03 11:58:23 51°27.362 3°10.316 18.1408 4.311973 32.369999 -3.020363
2011-08-03 11:59:23 51°27.363 3°10.629 18.1461 4.311143 32.356172 -3.020363
2011-08-03 12:00:23 51°27.357 3°10.945 18.17 4.310003 32.339744 -3.020363
2011-08-03 12:01:23 51°27.348 3°11.262 18.2229 4.309069 32.311976 -3.020363
2011-08-03 12:02:23 51°27.339 3°11.578 18.2626 4.311868 32.293107 -3.020363
2011-08-03 12:03:23 51°27.315 3°11.897 18.2757 4.315082 32.294522 -3.020363
2011-08-03 12:04:23 51°27.297 3°12.216 18.2778 4.318297 32.311461 -3.020363
2011-08-03 12:05:23 51°27.287 3°12.535 18.2777 4.321408 32.336225 -3.020363
2011-08-03 12:06:23 51°27.282 3°12.853 18.2698 4.325141 32.368059 -3.020363
2011-08-03 12:07:23 51°27.285 3°13.173 18.2886 4.328045 32.393584 -3.020363
2011-08-03 12:08:23 51°27.27 3°13.493 18.2965 4.329289 32.392783 -3.020363
2011-08-03 12:09:23 51°27.22 3°13.736 18.3165 4.327941 32.374048 -3.020363
2011-08-03 12:10:23 51°27.142 3°13.816 18.3142 4.327526 32.357529 -3.020363
2011-08-03 12:11:23 51°27.095 3°13.857 18.3113 4.327526 32.359393 -3.020363
2011-08-03 12:12:23 51°27.046 3°13.904 18.3138 4.327733 32.363612 -3.020363
2011-08-03 12:13:23 51°27.002 3°13.956 18.3234 4.327837 32.361992 -3.020363
2011-08-03 12:14:23 51°26.965 3°14.009 18.3221 4.327837 32.357022 -3.020363
2011-08-03 12:15:23 51°26.934 3°14.064 18.321 4.328044 32.356891 -3.020363
2011-08-03 12:16:23 51°26.91 3°14.123 18.3259 4.328044 32.35627 -3.020363
2011-08-03 12:17:23 51°26.893 3°14.18 18.3305 4.328044 32.352544 -3.020363
2011-08-03 12:18:23 51°26.885 3°14.251 18.3398 4.32794 32.347332 -3.020363
2011-08-03 12:19:23 51°26.886 3°14.334 18.3489 4.327525 32.338283 -3.020363
2011-08-03 12:20:23 51°26.896 3°14.415 18.356 4.327214 32.327623 -3.020363
2011-08-03 12:21:23 51°26.914 3°14.488 18.3595 4.326488 32.316605 -3.020363
2011-08-03 12:22:23 51°26.938 3°14.552 18.3647 4.325347 32.304608 -3.020363
2011-08-03 12:23:23 51°26.968 3°14.609 18.3655 4.324414 32.293724 -3.020363
2011-08-03 12:24:23 51°27.001 3°14.652 18.3659 4.323169 32.282723 -3.020363
2011-08-03 12:25:23 51°27.028 3°14.619 18.3613 4.321718 32.271849 -3.020363
2011-08-03 12:26:23 51°26.994 3°14.535 18.3607 4.32037 32.261222 -3.020363
2011-08-03 12:27:23 51°26.904 3°14.474 18.3662 4.320473 32.262087 -3.020363
2011-08-03 12:28:23 51°26.803 3°14.395 18.3628 4.322755 32.278644 -3.020363
2011-08-03 12:29:23 51°26.781 3°14.289 18.3589 4.325347 32.301511 -3.020363
2011-08-03 12:30:23 51°26.82 3°14.257 18.3568 4.326592 32.314992 -3.020363
2011-08-03 12:31:23 51°26.884 3°14.249 18.3643 4.326281 32.316734 -3.020363
2011-08-03 12:32:23 51°26.94 3°14.214 18.3838 4.325243 32.29755 -3.020363
2011-08-03 12:33:23 51°26.939 3°14.201 18.3658 4.324517 32.2785 -3.020363
2011-08-03 12:34:23 51°26.926 3°14.196 18.3661 4.323169 32.282105 -3.020363
2011-08-03 12:35:23 51°26.911 3°14.194 18.3872 4.322236 32.271225 -3.020363
2011-08-03 12:36:23 51°26.897 3°14.194 18.3709 4.323273 32.268742 -3.020363
2011-08-03 12:37:23 51°26.882 3°14.197 18.3463 4.322962 32.275424 -3.020363
2011-08-03 12:38:23 51°26.866 3°14.202 18.3933 4.321925 32.276674 -3.020363
2011-08-03 12:39:23 51°26.851 3°14.208 18.3834 4.32348 32.264289 -3.020363
2011-08-03 12:40:23 51°26.835 3°14.215 18.3744 4.322651 32.267882 -3.020363
2011-08-03 12:41:23 51°26.82 3°14.224 18.3771 4.322132 32.269742 -3.020363
2011-08-03 12:42:23 51°26.804 3°14.232 18.384 4.32234 32.264669 -3.020363
2011-08-03 12:43:23 51°26.788 3°14.242 18.3905 4.322547 32.260216 -3.020363
2011-08-03 12:44:23 51°26.77 3°14.251 18.3947 4.322858 32.258484 -3.020363
2011-08-03 12:45:23 51°26.753 3°14.261 18.3986 4.323169 32.259841 -3.020363
2011-08-03 12:46:23 51°26.734 3°14.272 18.4055 4.323584 32.258974 -3.020363
2011-08-03 12:47:23 51°26.716 3°14.283 18.4016 4.323998 32.256872 -3.020363
2011-08-03 12:48:23 51°26.698 3°14.294 18.4091 4.323895 32.259096 -3.020363
2011-08-03 12:49:23 51°26.679 3°14.306 18.4211 4.324621 32.257116 -3.020363
2011-08-03 12:50:23 51°26.66 3°14.318 18.42 4.325346 32.256372 -3.020363
2011-08-03 12:51:23 51°26.641 3°14.33 18.4236 4.325035 32.255632 -3.020363
2011-08-03 12:52:23 51°26.622 3°14.343 18.4253 4.325346 32.25452 -3.020363
2011-08-03 12:53:23 51°26.623 3°14.346 18.4311 4.32545 32.256619 -3.020363
2011-08-03 12:54:23 51°26.687 3°14.321 18.3987 4.325554 32.252544 -3.020363
2011-08-03 12:55:23 51°26.792 3°14.231 18.3969 4.322236 32.24218 -3.020363
2011-08-03 12:56:23 51°26.912 3°14.1 18.3758 4.318917 32.2244 -3.020363
2011-08-03 12:57:23 51°26.983 3°13.865 18.395 4.313733 32.189819 -3.020363
2011-08-03 12:58:23 51°26.93 3°13.562 18.3823 4.313732 32.176873 -3.020363
2011-08-03 12:59:23 51°26.859 3°13.255 18.3716 4.317673 32.224522 -3.020363
2011-08-03 13:00:23 51°26.793 3°12.947 18.3676 4.321199 32.258247 -3.020363
2011-08-03 13:01:23 51°26.738 3°12.635 18.3637 4.321095 32.260474 -3.020363
2011-08-03 13:02:23 51°26.675 3°12.326 18.3629 4.319125 32.256407 -3.020363
2011-08-03 13:03:23 51°26.593 3°12.026 18.3668 4.317674 32.249243 -3.020363
2011-08-03 13:04:23 51°26.434 3°11.801 18.3654 4.314563 32.223904 -3.020363
2011-08-03 13:05:23 51°26.252 3°11.612 18.3448 4.3156 32.236266 -3.020363
2011-08-03 13:06:23 51°26.084 3°11.394 18.329 4.311452 32.214634 -3.020363
2011-08-03 13:07:23 51°25.911 3°11.181 18.3141 4.310726 32.2228 -3.020363
2011-08-03 13:08:23 51°25.737 3°10.973 18.2966 4.311038 32.235302 -3.020363
2011-08-03 13:09:23 51°25.555 3°10.78 18.2884 4.310623 32.242986 -3.020363
2011-08-03 13:10:23 51°25.38 3°10.576 18.2832 4.313838 32.279153 -3.020363
2011-08-03 13:11:23 51°25.201 3°10.384 18.2822 4.314667 32.289813 -3.020363
2011-08-03 13:12:23 51°25.022 3°10.196 18.2869 4.316845 32.306156 -3.020363
2011-08-03 13:13:23 51°24.842 3°10.016 18.2906 4.318401 32.317297 -3.020363
2011-08-03 13:14:23 51°24.659 3°9.848 18.2975 4.320682 32.332643 -3.020363
2011-08-03 13:15:23 51°24.469 3°9.701 18.302 4.323585 32.348836 -3.020363
2011-08-03 13:16:23 51°24.263 3°9.621 18.3083 4.326489 32.371243 -3.020363
2011-08-03 13:17:23 51°24.063 3°9.549 18.3159 4.331363 32.404519 -3.020363
2011-08-03 13:18:23 51°23.86 3°9.5 18.3353 4.324726 32.339728 -3.020363
2011-08-03 13:19:23 51°23.666 3°9.412 18.35 4.319852 32.290331 -3.020363
2011-08-03 13:20:23 51°23.483 3°9.285 18.3466 4.317363 32.26026 -3.020363
2011-08-03 13:21:23 51°23.299 3°9.158 18.4015 4.316222 32.250738 -3.020363
2011-08-03 13:22:23 51°23.112 3°9.032 18.4063 4.317673 32.223287 -3.020363
2011-08-03 13:23:23 51°22.922 3°8.92 18.3931 4.312488 32.165273 -3.020363
2011-08-03 13:24:23 51°22.74 3°8.792 18.4519 4.300459 32.089042 -3.020363
2011-08-03 13:25:23 51°22.554 3°8.675 18.543 4.29714 31.986004 -3.020363
2011-08-03 13:26:23 51°22.375 3°8.543 18.4023 4.300146 31.982889 -3.020363
2011-08-03 13:27:23 51°22.188 3°8.428 18.3872 4.285942 31.974216 -3.020363
2011-08-03 13:28:23 51°22.008 3°8.291 18.4996 4.283868 31.908626 -3.020363
2011-08-03 13:29:23 51°21.827 3°8.154 18.4024 4.286252 31.907097 -3.020363
2011-08-03 13:30:23 51°21.65 3°8.013 18.3812 4.275988 31.886412 -3.020363
2011-08-03 13:31:23 51°21.475 3°7.879 18.5219 4.278061 31.852411 -3.020363
2011-08-03 13:32:23 51°21.301 3°7.748 18.4723 4.286666 31.86182 -3.020363
2011-08-03 13:33:23 51°21.154 3°7.56 18.3741 4.281379 31.886098 -3.020363
2011-08-03 13:34:23 51°21.006 3°7.374 18.3502 4.272566 31.868305 -3.020363
2011-08-03 13:35:23 51°20.847 3°7.214 18.3518 4.269352 31.855584 -3.020363
2011-08-03 13:36:23 51°20.698 3°7.038 18.3355 4.266967 31.837549 -3.020363
2011-08-03 13:37:23 51°20.552 3°6.856 18.3497 4.259709 31.788678 -3.020363
2011-08-03 13:38:23 51°20.394 3°6.697 18.3394 4.255043 31.741889 -3.020363
2011-08-03 13:39:23 51°20.241 3°6.532 18.366 4.248926 31.695206 -3.020363
2011-08-03 13:40:23 51°20.094 3°6.357 18.4041 4.25017 31.680039 -3.020363
2011-08-03 13:41:23 51°19.953 3°6.177 18.3884 4.251932 31.677098 -3.020363
2011-08-03 13:42:23 51°19.799 3°6.025 18.4112 4.251414 31.676428 -3.020363
2011-08-03 13:43:23 51°19.649 3°5.866 18.3818 4.252347 31.67448 -3.020363
2011-08-03 13:44:23 51°19.505 3°5.701 18.3849 4.247266 31.650425 -3.020363
2011-08-03 13:45:23 51°19.365 3°5.533 18.3847 4.244156 31.616676 -3.020363
2011-08-03 13:46:23 51°19.223 3°5.371 18.3968 4.240008 31.587639 -3.020363
2011-08-03 13:47:23 51°19.091 3°5.185 18.4264 4.239904 31.565609 -3.020363
2011-08-03 13:48:23 51°18.974 3°4.979 18.4226 4.240112 31.557061 -3.020363
2011-08-03 13:49:23 51°18.872 3°4.756 18.4127 4.238038 31.54829 -3.020363
2011-08-03 13:50:23 51°18.781 3°4.523 18.379 4.235757 31.545646 -3.020363
2011-08-03 13:51:23 51°18.681 3°4.301 18.3588 4.234202 31.546619 -3.020363
2011-08-03 13:52:23 51°18.591 3°4.068 18.3642 4.233892 31.557945 -3.020363
2011-08-03 13:53:23 51°18.499 3°3.84 18.3779 4.235654 31.565949 -3.020363
2011-08-03 13:54:23 51°18.401 3°3.621 18.5171 4.240838 31.583039 -3.020363
2011-08-03 13:55:23 51°18.315 3°3.387 18.5141 4.253589 31.58927 -3.020363
2011-08-03 13:56:23 51°18.215 3°3.169 18.5185 4.253071 31.603064 -3.020363
2011-08-03 13:57:23 51°18.127 3°2.938 18.6212 4.25587 31.587086 -3.020363
2011-08-03 13:58:23 51°18.039 3°2.709 18.6754 4.26012 31.566346 -3.020363
2011-08-03 13:59:23 51°17.961 3°2.468 18.513 4.265615 31.61361 -3.020363
2011-08-03 14:00:23 51°17.869 3°2.238 18.5974 4.254211 31.591413 -3.020363
2011-08-03 14:01:23 51°17.782 3°2.002 18.6335 4.256595 31.575641 -3.020363
2011-08-03 14:02:23 51°17.695 3°1.771 18.5721 4.261364 31.575436 -3.020363
2011-08-03 14:03:23 51°17.604 3°1.542 18.5772 4.25701 31.588706 -3.020363
2011-08-03 14:04:23 51°17.519 3°1.308 18.5756 4.257425 31.592141 -3.020363
2011-08-03 14:05:23 51°17.43 3°1.077 18.5555 4.258773 31.600295 -3.020363
2011-08-03 14:06:23 51°17.35 3°0.841 18.5386 4.257736 31.604959 -3.020363
2011-08-03 14:07:23 51°17.257 3°0.615 18.571 4.257011 31.608589 -3.020363
2011-08-03 14:08:23 51°17.17 3°0.385 18.5627 4.25898 31.612256 -3.020363
2011-08-03 14:09:23 51°17.073 3°0.163 18.6078 4.260121 31.607846 -3.020363
2011-08-03 14:10:23 51°16.99 2°59.927 18.6026 4.262505 31.614345 -3.020363
2011-08-03 14:11:23 51°16.894 2°59.708 18.6815 4.265616 31.617219 -3.020363
2011-08-03 14:12:23 51°16.808 2°59.476 18.6564 4.271525 31.634225 -3.020363
2011-08-03 14:13:23 51°16.714 2°59.251 18.7158 4.272355 31.644693 -3.020363
2011-08-03 14:14:23 51°16.631 2°59.014 18.7502 4.278679 31.654282 -3.020363
2011-08-03 14:15:23 51°16.541 2°58.781 18.7495 4.281893 31.657402 -3.020363
2011-08-03 14:16:23 51°16.447 2°58.553 18.771 4.283449 31.673845 -3.020363
2011-08-03 14:17:23 51°16.358 2°58.317 18.7736 4.28884 31.698528 -3.020363
2011-08-03 14:18:23 51°16.262 2°58.086 18.7408 4.291848 31.727554 -3.020363
2011-08-03 14:19:23 51°16.175 2°57.846 18.7092 4.291537 31.755688 -3.020363
2011-08-03 14:20:23 51°16.066 2°57.627 18.7092 4.292263 31.774953 -3.020363
2011-08-03 14:21:23 51°15.968 2°57.397 18.6839 4.2961 31.810294 -3.020363
2011-08-03 14:22:23 51°15.868 2°57.169 18.7012 4.298589 31.843572 -3.020363
2011-08-03 14:23:23 51°15.774 2°56.936 18.722 4.30284 31.863612 -3.020363
2011-08-03 14:24:23 51°15.68 2°56.706 18.7609 4.307091 31.884244 -3.020363
2011-08-03 14:25:23 51°15.573 2°56.492 18.8069 4.312587 31.897604 -3.020363
2011-08-03 14:26:23 51°15.469 2°56.271 18.816 4.317564 31.908484 -3.020363
2011-08-03 14:27:23 51°15.351 2°56.074 18.8723 4.320674 31.918451 -3.020363
2011-08-03 14:28:23 51°15.225 2°55.886 19.1267 0.08651 0.484306 -3.020363
2011-08-03 14:29:23 51°15.112 2°55.679 19.2149 0.069339 0.385119 -3.020363
2011-08-03 14:30:23 51°14.999 2°55.475 19.3088 0.060497 0.334472 -3.020363
2011-08-03 14:31:23 51°14.881 2°55.282 19.3951 0.055356 0.305171 -3.020363
2011-08-03 14:32:23 51°14.749 2°55.112 19.4677 0.052169 0.287027 -3.020363
2011-08-03 14:33:23 51°14.591 2°55.008 19.5509 0.05001 0.274743 -3.020363
2011-08-03 14:34:23 51°14.415 2°55.111 19.638 0.048571 0.266526 -3.020363
2011-08-03 14:35:24 51°14.257 2°55.294 19.6855 0.046 0.251992 -3.020363
2011-08-03 14:36:23 51°14.125 2°55.414 19.7751 0.044767 0.244979 -3.020363
2011-08-03 14:37:24 51°14.002 2°55.504 19.8564 0.043636 0.238552 -3.020363
2011-08-03 14:38:23 51°13.902 2°55.575 19.9632 0.04271 0.233282 -3.020363
2011-08-03 14:39:23 51°13.802 2°55.65 20.0417 0.041785 0.228023 -3.020363
2011-08-03 14:40:23 51°13.725 2°55.755 20.1018 0.041065 0.223917 -3.020363
2011-08-03 14:41:23 51°13.678 2°55.856 20.1942 0.040346 0.219814 -3.020363
2011-08-03 14:42:23 51°13.648 2°55.941 20.2834 0.039729 0.21629 -3.020363
2011-08-03 14:43:23 51°13.638 2°56.007 20.3402 0.039112 0.212772 -3.020363
2011-08-03 14:44:23 51°13.636 2°56.018 20.4253 0.038598 0.209824 -3.020363
2011-08-03 14:45:24 51°13.636 2°56.019 20.5013 0.037981 0.206315 -3.020363
2011-08-03 14:46:23 51°13.636 2°56.02 20.5532 0.03757 0.203942 -3.020363